createdAt,value
2023-02-24T00:01:25.074Z,97951.72
2023-02-24T00:03:52.726Z,97948.78
2023-02-24T00:06:19.474Z,97954.47
2023-02-24T00:08:45.965Z,97944.91
2023-02-24T00:11:13.460Z,97946.22
2023-02-24T00:13:40.450Z,97942.13
2023-02-24T00:16:07.588Z,97944.41
2023-02-24T00:18:34.094Z,97939.13
2023-02-24T00:21:08.391Z,97931.22
2023-02-24T00:23:38.802Z,97933.91
2023-02-24T00:26:06.802Z,97925.81
2023-02-24T00:28:36.347Z,97910.66
2023-02-24T00:31:06.797Z,97897.59
2023-02-24T00:33:33.822Z,97900.94
2023-02-24T00:36:06.609Z,97890.59
2023-02-24T00:38:35.862Z,97895.38
2023-02-24T00:41:08.732Z,97889.06
2023-02-24T00:43:37.273Z,97888.06
2023-02-24T00:46:11.151Z,97886.59
2023-02-24T00:48:41.597Z,97888.00
2023-02-24T00:51:10.237Z,97882.03
2023-02-24T00:53:40.129Z,97878.91
2023-02-24T00:56:07.232Z,97878.91
2023-02-24T00:58:35.251Z,97877.03
2023-02-24T01:01:03.863Z,97882.19
2023-02-24T01:03:31.828Z,97884.47
2023-02-24T01:06:03.148Z,97878.03
2023-02-24T01:08:29.659Z,97887.31
2023-02-24T01:11:18.132Z,97876.78
2023-02-24T01:13:45.427Z,97884.69
2023-02-24T01:16:14.532Z,97878.59
2023-02-24T01:18:41.744Z,97876.41
2023-02-24T01:21:08.424Z,97878.22
2023-02-24T01:23:35.733Z,97888.75
2023-02-24T01:26:02.714Z,97880.53
2023-02-24T01:28:30.088Z,97870.53
2023-02-24T01:31:01.813Z,97873.00
2023-02-24T01:33:29.930Z,97872.78
2023-02-24T01:35:56.546Z,97864.59
2023-02-24T01:38:23.261Z,97875.31
2023-02-24T01:40:58.288Z,97867.03
2023-02-24T01:43:25.151Z,97848.72
2023-02-24T01:45:53.671Z,97846.31
2023-02-24T01:48:20.891Z,97844.84
2023-02-24T01:50:47.666Z,97836.59
2023-02-24T01:53:14.133Z,97839.69
2023-02-24T01:55:49.804Z,97834.38
2023-02-24T01:58:21.250Z,97835.34
2023-02-24T02:00:48.031Z,97831.94
2023-02-24T02:03:33.273Z,97828.69
2023-02-24T02:06:02.124Z,97824.31
2023-02-24T02:08:29.023Z,97823.00
2023-02-24T02:10:58.801Z,97817.72
2023-02-24T02:13:26.402Z,97809.69
2023-02-24T02:16:05.088Z,97806.63
2023-02-24T02:18:47.737Z,97803.16
2023-02-24T02:21:55.071Z,97783.00
2023-02-24T02:24:31.354Z,97791.41
2023-02-24T02:27:22.534Z,97780.47
2023-02-24T02:29:51.952Z,97768.34
2023-02-24T02:32:38.342Z,97754.63
2023-02-24T02:35:21.051Z,97750.94
2023-02-24T02:38:15.053Z,97739.50
2023-02-24T02:40:48.872Z,97741.00
2023-02-24T02:43:25.823Z,97725.56
2023-02-24T02:46:03.745Z,97729.69
2023-02-24T02:48:47.468Z,97726.38
2023-02-24T02:51:17.160Z,97724.75
2023-02-24T02:53:50.038Z,97725.00
2023-02-24T02:56:21.986Z,97713.75
2023-02-24T02:58:49.581Z,97726.31
2023-02-24T03:01:16.351Z,97722.31
2023-02-24T03:03:45.702Z,97727.25
2023-02-24T03:06:15.127Z,97721.78
2023-02-24T03:08:43.424Z,97713.25
2023-02-24T03:11:11.464Z,97707.81
2023-02-24T03:13:39.781Z,97710.72
2023-02-24T03:16:06.603Z,97707.50
2023-02-24T03:18:35.837Z,97701.84
2023-02-24T03:21:11.773Z,97698.09
2023-02-24T03:23:45.330Z,97705.69
2023-02-24T03:26:24.913Z,97695.03
2023-02-24T03:29:11.614Z,97692.63
2023-02-24T03:31:54.130Z,97694.13
2023-02-24T03:34:23.875Z,97684.06
2023-02-24T03:36:50.358Z,97677.72
2023-02-24T03:39:16.938Z,97678.53
2023-02-24T03:41:54.121Z,97674.88
2023-02-24T03:44:20.621Z,97678.72
2023-02-24T03:46:47.445Z,97676.81
2023-02-24T03:49:14.231Z,97677.63
2023-02-24T03:51:44.758Z,97664.41
2023-02-24T03:54:33.171Z,97653.09
2023-02-24T03:57:23.110Z,97654.69
2023-02-24T04:00:26.363Z,97651.84
2023-02-24T04:02:59.444Z,97654.34
2023-02-24T04:05:27.497Z,97636.97
2023-02-24T04:08:01.484Z,97639.56
2023-02-24T04:10:39.266Z,97633.59
2023-02-24T04:13:22.708Z,97635.97
2023-02-24T04:15:52.815Z,97638.00
2023-02-24T04:18:20.354Z,97636.41
2023-02-24T04:20:50.981Z,97633.31
2023-02-24T04:23:18.128Z,97640.09
2023-02-24T04:25:46.600Z,97634.97
2023-02-24T04:28:13.420Z,97631.72
2023-02-24T04:30:41.959Z,97626.56
2023-02-24T04:33:10.049Z,97627.84
2023-02-24T04:35:37.211Z,97621.69
2023-02-24T04:38:05.076Z,97616.16
2023-02-24T04:40:31.581Z,97607.31
2023-02-24T04:42:58.062Z,97609.84
2023-02-24T04:45:25.954Z,97600.69
2023-02-24T04:47:56.090Z,97606.19
2023-02-24T04:50:23.194Z,97599.28
2023-02-24T04:52:51.645Z,97605.19
2023-02-24T04:55:19.405Z,97595.47
2023-02-24T04:57:45.999Z,97589.66
2023-02-24T05:00:20.697Z,97583.22
2023-02-24T05:02:48.903Z,97580.66
2023-02-24T05:05:16.684Z,97581.78
2023-02-24T05:07:47.706Z,97562.75
2023-02-24T05:10:15.332Z,97568.31
2023-02-24T05:12:42.584Z,97560.53
2023-02-24T05:15:09.372Z,97554.13
2023-02-24T05:17:36.413Z,97558.59
2023-02-24T05:20:21.776Z,97559.22
2023-02-24T05:22:51.729Z,97550.28
2023-02-24T05:25:19.036Z,97549.19
2023-02-24T05:27:45.877Z,97550.78
2023-02-24T05:30:12.581Z,97544.00
2023-02-24T05:32:39.119Z,97541.34
2023-02-24T05:35:06.125Z,97535.25
2023-02-24T05:37:34.067Z,97536.28
2023-02-24T05:40:00.615Z,97528.53
2023-02-24T05:42:27.707Z,97533.16
2023-02-24T05:44:54.238Z,97523.91
2023-02-24T05:47:23.121Z,97525.66
2023-02-24T05:49:51.907Z,97520.16
2023-02-24T05:52:18.503Z,97518.28
2023-02-24T05:54:45.311Z,97516.00
2023-02-24T05:57:13.722Z,97505.09
2023-02-24T05:59:40.991Z,97511.56
2023-02-24T06:02:09.491Z,97507.72
2023-02-24T06:04:40.564Z,97500.66
2023-02-24T06:07:14.623Z,97499.91
2023-02-24T06:09:44.953Z,97493.16
2023-02-24T06:12:12.075Z,97488.91
2023-02-24T06:14:38.725Z,97487.75
2023-02-24T06:17:05.268Z,97486.38
2023-02-24T06:19:34.610Z,97485.56
2023-02-24T06:22:04.348Z,97485.34
2023-02-24T06:24:31.907Z,97483.88
2023-02-24T06:27:02.504Z,97474.84
2023-02-24T06:29:30.088Z,97474.47
2023-02-24T06:31:57.794Z,97464.22
2023-02-24T06:34:25.182Z,97457.03
2023-02-24T06:36:52.713Z,97460.25
2023-02-24T06:39:19.463Z,97446.13
2023-02-24T06:41:48.735Z,97446.91
2023-02-24T06:44:15.222Z,97447.56
2023-02-24T06:46:41.759Z,97436.03
2023-02-24T06:49:09.867Z,97429.72
2023-02-24T06:51:39.214Z,97432.63
2023-02-24T06:54:06.190Z,97424.59
2023-02-24T06:56:38.354Z,97417.03
2023-02-24T06:59:06.847Z,97411.94
2023-02-24T07:01:34.629Z,97409.50
2023-02-24T07:04:04.035Z,97410.88
2023-02-24T07:06:38.505Z,97402.38
2023-02-24T07:09:10.649Z,97404.75
2023-02-24T07:11:37.503Z,97398.66
2023-02-24T07:14:05.822Z,97398.47
2023-02-24T07:16:34.335Z,97400.25
2023-02-24T07:19:09.540Z,97395.31
2023-02-24T07:21:43.334Z,97392.78
2023-02-24T07:24:13.341Z,97387.78
2023-02-24T07:26:43.776Z,97377.00
2023-02-24T07:29:11.437Z,97384.34
2023-02-24T07:31:38.777Z,97376.25
2023-02-24T07:34:06.320Z,97375.63
2023-02-24T07:36:38.837Z,97380.03
2023-02-24T07:39:08.014Z,97375.44
2023-02-24T07:41:34.513Z,97366.75
2023-02-24T07:44:03.429Z,97366.00
2023-02-24T07:46:30.080Z,97357.66
2023-02-24T07:48:56.765Z,97353.44
2023-02-24T07:51:24.357Z,97348.34
2023-02-24T07:53:52.952Z,97346.56
2023-02-24T07:56:20.629Z,97339.34
2023-02-24T07:58:50.949Z,97352.56
2023-02-24T08:01:22.991Z,97330.06
2023-02-24T08:03:51.988Z,97325.53
2023-02-24T08:06:27.154Z,97319.72
2023-02-24T08:08:58.039Z,97315.88
2023-02-24T08:11:25.142Z,97317.81
2023-02-24T08:13:51.826Z,97305.25
2023-02-24T08:16:18.450Z,97294.97
2023-02-24T08:18:50.922Z,97295.75
2023-02-24T08:21:19.698Z,97295.75
2023-02-24T08:23:47.571Z,97289.03
2023-02-24T08:26:14.800Z,97285.47
2023-02-24T08:28:41.337Z,97283.25
2023-02-24T08:31:08.004Z,97276.31
2023-02-24T08:33:37.201Z,97283.88
2023-02-24T08:36:03.807Z,97275.34
2023-02-24T08:38:39.687Z,97264.72
2023-02-24T08:41:11.037Z,97256.84
2023-02-24T08:43:38.643Z,97252.69
2023-02-24T08:46:18.707Z,97254.28
2023-02-24T08:48:46.553Z,97248.81
2023-02-24T08:51:24.496Z,97247.53
2023-02-24T08:53:53.192Z,97247.22
2023-02-24T08:56:24.281Z,97232.25
2023-02-24T08:58:56.938Z,97229.81
2023-02-24T09:01:34.818Z,97228.38
2023-02-24T09:04:12.008Z,97217.44
2023-02-24T09:07:10.711Z,97221.94
2023-02-24T09:09:42.068Z,97215.97
2023-02-24T09:12:10.336Z,97210.19
2023-02-24T09:14:37.393Z,97212.91
2023-02-24T09:17:10.985Z,97218.56
2023-02-24T09:19:40.628Z,97217.13
2023-02-24T09:22:21.251Z,97211.63
2023-02-24T09:24:51.001Z,97216.75
2023-02-24T09:27:17.658Z,97214.19
2023-02-24T09:29:49.310Z,97208.91
2023-02-24T09:32:15.990Z,97200.03
2023-02-24T09:34:44.006Z,97196.47
2023-02-24T09:37:24.811Z,97200.19
2023-02-24T09:39:54.613Z,97198.09
2023-02-24T09:42:28.973Z,97192.81
2023-02-24T09:44:59.843Z,97186.22
2023-02-24T09:47:39.534Z,97179.09
2023-02-24T09:51:04.287Z,97181.66
2023-02-24T09:53:49.170Z,97179.28
2023-02-24T09:56:17.835Z,97185.88
2023-02-24T09:59:34.618Z,97178.31
2023-02-24T10:02:17.979Z,97169.31
2023-02-24T10:05:20.244Z,97171.22
2023-02-24T10:07:46.738Z,97166.25
2023-02-24T10:10:20.268Z,97165.09
2023-02-24T10:12:52.612Z,97164.19
2023-02-24T10:15:56.908Z,97163.03
2023-02-24T10:18:46.831Z,97172.06
2023-02-24T10:21:49.410Z,97162.22
2023-02-24T10:24:19.337Z,97160.78
2023-02-24T10:27:23.851Z,97155.50
2023-02-24T10:30:20.196Z,97155.63
2023-02-24T10:32:58.771Z,97157.56
2023-02-24T10:35:31.026Z,97143.75
2023-02-24T10:38:05.176Z,97140.69
2023-02-24T10:40:46.627Z,97137.78
2023-02-24T10:43:18.725Z,97142.94
2023-02-24T10:45:45.839Z,97136.50
2023-02-24T10:48:40.755Z,97141.94
2023-02-24T10:51:20.191Z,97135.84
2023-02-24T10:53:53.294Z,97139.88
2023-02-24T10:56:41.624Z,97133.28
2023-02-24T10:59:24.819Z,97129.75
2023-02-24T11:02:06.647Z,97113.84
2023-02-24T11:04:56.057Z,97122.50
2023-02-24T11:07:25.179Z,97107.88
2023-02-24T11:10:26.156Z,97110.47
2023-02-24T11:13:12.889Z,97089.41
2023-02-24T11:16:09.389Z,97090.22
2023-02-24T11:18:36.051Z,97096.00
2023-02-24T11:21:04.449Z,97080.88
2023-02-24T11:23:46.850Z,97074.47
2023-02-24T11:26:26.458Z,97070.78
2023-02-24T11:29:03.867Z,97058.06
2023-02-24T11:31:54.329Z,97052.28
2023-02-24T11:34:28.965Z,97049.69
2023-02-24T11:37:09.065Z,97036.38
2023-02-24T11:39:55.087Z,97038.13
2023-02-24T11:42:35.112Z,97036.06
2023-02-24T11:45:42.563Z,97034.28
2023-02-24T11:48:23.079Z,97021.59
2023-02-24T11:51:20.232Z,97025.75
2023-02-24T11:54:04.418Z,97023.19
2023-02-24T11:56:36.452Z,97022.41
2023-02-24T11:59:30.969Z,97015.97
2023-02-24T12:02:35.647Z,97012.91
2023-02-24T12:05:19.361Z,97007.63
2023-02-24T12:07:51.091Z,97001.97
2023-02-24T12:10:32.021Z,96988.97
2023-02-24T12:13:01.205Z,96997.16
2023-02-24T12:15:32.087Z,96996.22
2023-02-24T12:18:25.529Z,96995.72
2023-02-24T12:21:06.871Z,96981.13
2023-02-24T12:23:40.751Z,96981.72
2023-02-24T12:26:25.768Z,96963.41
2023-02-24T12:29:20.162Z,96957.47
2023-02-24T12:32:15.951Z,96963.91
2023-02-24T12:35:06.953Z,96964.53
2023-02-24T12:37:54.043Z,96954.91
2023-02-24T12:40:39.033Z,96952.34
2023-02-24T12:43:27.308Z,96954.25
2023-02-24T12:46:04.195Z,96942.03
2023-02-24T12:48:49.951Z,96938.34
2023-02-24T12:51:34.337Z,96940.25
2023-02-24T12:54:24.615Z,96930.59
2023-02-24T12:57:04.132Z,96928.50
2023-02-24T12:59:32.008Z,96918.25
2023-02-24T13:02:03.027Z,96918.91
2023-02-24T13:04:36.435Z,96909.09
2023-02-24T13:07:17.676Z,96907.50
2023-02-24T13:10:14.541Z,96914.41
2023-02-24T13:12:47.414Z,96907.00
2023-02-24T13:15:25.308Z,96903.16
2023-02-24T13:17:53.251Z,96904.13
2023-02-24T13:20:37.020Z,96909.38
2023-02-24T13:23:16.766Z,96905.09
2023-02-24T13:25:52.862Z,96902.19
2023-02-24T13:28:35.886Z,96891.59
2023-02-24T13:31:07.687Z,96897.84
2023-02-24T13:33:39.117Z,96885.63
2023-02-24T13:36:10.314Z,96878.53
2023-02-24T13:38:38.982Z,96870.53
2023-02-24T13:41:29.178Z,96870.22
2023-02-24T13:43:57.853Z,96884.41
2023-02-24T13:46:24.696Z,96865.28
2023-02-24T13:49:00.232Z,96866.53
2023-02-24T13:52:00.408Z,96868.75
2023-02-24T13:54:49.742Z,96855.59
2023-02-24T13:57:44.364Z,96851.72
2023-02-24T14:00:28.167Z,96850.88
2023-02-24T14:02:54.650Z,96843.78
2023-02-24T14:05:33.085Z,96838.50
2023-02-24T14:07:59.825Z,96842.34
2023-02-24T14:10:27.654Z,96844.09
2023-02-24T14:13:08.042Z,96847.34
2023-02-24T14:15:34.752Z,96847.47
2023-02-24T14:18:02.991Z,96845.25
2023-02-24T14:20:32.302Z,96849.75
2023-02-24T14:22:59.170Z,96834.16
2023-02-24T14:25:27.738Z,96842.81
2023-02-24T14:27:55.097Z,96841.38
2023-02-24T14:30:36.593Z,96825.31
2023-02-24T14:33:03.610Z,96825.44
2023-02-24T14:35:33.102Z,96817.69
2023-02-24T14:38:01.378Z,96816.06
2023-02-24T14:40:28.923Z,96813.31
2023-02-24T14:42:55.548Z,96818.16
2023-02-24T14:45:25.326Z,96821.84
2023-02-24T14:47:55.844Z,96825.06
2023-02-24T14:50:30.581Z,96813.31
2023-02-24T14:53:01.647Z,96809.00
2023-02-24T14:55:29.965Z,96801.41
2023-02-24T14:58:29.271Z,96808.97
2023-02-24T15:01:02.577Z,96816.03
2023-02-24T15:03:32.997Z,96809.63
2023-02-24T15:06:01.410Z,96811.81
2023-02-24T15:08:37.748Z,96809.06
2023-02-24T15:11:30.853Z,96794.91
2023-02-24T15:14:06.129Z,96794.03
2023-02-24T15:16:43.768Z,96793.81
2023-02-24T15:19:31.482Z,96794.03
2023-02-24T15:21:58.005Z,96795.63
2023-02-24T15:24:34.100Z,96797.22
2023-02-24T15:27:02.353Z,96794.97
2023-02-24T15:29:30.266Z,96798.69
2023-02-24T15:31:58.299Z,96791.75
2023-02-24T15:34:27.541Z,96790.81
2023-02-24T15:36:58.934Z,96788.69
2023-02-24T15:39:27.766Z,96785.09
2023-02-24T15:42:06.959Z,96779.78
2023-02-24T15:44:34.049Z,96771.22
2023-02-24T15:47:11.865Z,96766.72
2023-02-24T15:49:38.414Z,96765.44
2023-02-24T15:52:05.902Z,96766.16
2023-02-24T15:54:34.832Z,96758.75
2023-02-24T15:57:01.927Z,96754.44
2023-02-24T15:59:28.803Z,96750.22
2023-02-24T16:01:55.364Z,96750.41
2023-02-24T16:04:22.414Z,96737.88
2023-02-24T16:06:57.506Z,96738.91
2023-02-24T16:09:33.307Z,96739.22
2023-02-24T16:11:59.959Z,96734.47
2023-02-24T16:14:26.442Z,96733.44
2023-02-24T16:16:52.953Z,96727.56
2023-02-24T16:19:19.571Z,96735.09
2023-02-24T16:21:46.392Z,96731.22
2023-02-24T16:24:12.908Z,96724.91
2023-02-24T16:26:39.811Z,96740.41
2023-02-24T16:29:11.532Z,96730.94
2023-02-24T16:31:38.934Z,96728.81
2023-02-24T16:34:06.024Z,96732.97
2023-02-24T16:36:32.512Z,96725.75
2023-02-24T16:38:59.036Z,96738.53
2023-02-24T16:41:25.500Z,96729.63
2023-02-24T16:43:51.981Z,96728.28
2023-02-24T16:46:20.623Z,96738.53
2023-02-24T16:48:47.934Z,96737.19
2023-02-24T16:51:14.454Z,96727.84
2023-02-24T16:53:40.923Z,96729.31
2023-02-24T16:56:07.738Z,96728.94
2023-02-24T16:58:34.403Z,96729.47
2023-02-24T17:01:02.726Z,96733.59
2023-02-24T17:03:35.067Z,96715.91
2023-02-24T17:06:01.542Z,96729.59
2023-02-24T17:08:28.178Z,96715.78
2023-02-24T17:10:54.655Z,96723.88
2023-02-24T17:13:21.473Z,96728.00
2023-02-24T17:15:49.637Z,96712.84
2023-02-24T17:18:16.096Z,96714.81
2023-02-24T17:20:42.628Z,96710.00
2023-02-24T17:23:10.748Z,96711.13
2023-02-24T17:25:37.560Z,96709.44
2023-02-24T17:28:06.280Z,96712.41
2023-02-24T17:30:34.397Z,96713.88
2023-02-24T17:33:01.016Z,96707.75
2023-02-24T17:35:28.010Z,96711.19
2023-02-24T17:37:54.520Z,96709.94
2023-02-24T17:40:21.101Z,96716.53
2023-02-24T17:42:47.638Z,96716.31
2023-02-24T17:45:14.389Z,96722.38
2023-02-24T17:47:41.154Z,96713.94
2023-02-24T17:50:08.365Z,96718.13
2023-02-24T17:52:35.181Z,96722.69
2023-02-24T17:55:01.662Z,96722.88
2023-02-24T17:57:29.484Z,96721.34
2023-02-24T17:59:55.997Z,96728.06
2023-02-24T18:02:24.022Z,96719.69
2023-02-24T18:04:50.747Z,96723.94
2023-02-24T18:07:17.463Z,96728.94
2023-02-24T18:09:43.943Z,96722.09
2023-02-24T18:12:10.421Z,96719.00
2023-02-24T18:14:36.913Z,96712.19
2023-02-24T18:17:03.382Z,96709.66
2023-02-24T18:19:30.510Z,96707.66
2023-02-24T18:21:56.991Z,96721.44
2023-02-24T18:24:23.497Z,96719.97
2023-02-24T18:26:51.421Z,96724.88
2023-02-24T18:29:17.908Z,96719.75
2023-02-24T18:31:44.577Z,96717.91
2023-02-24T18:34:11.238Z,96715.41
2023-02-24T18:36:37.705Z,96704.22
2023-02-24T18:39:04.450Z,96716.34
2023-02-24T18:41:30.957Z,96732.91
2023-02-24T18:43:59.057Z,96723.22
2023-02-24T18:46:26.102Z,96720.75
2023-02-24T18:48:52.840Z,96730.31
2023-02-24T18:51:21.127Z,96722.69
2023-02-24T18:53:47.904Z,96728.03
2023-02-24T18:56:19.424Z,96715.13
2023-02-24T18:58:46.579Z,96723.22
2023-02-24T19:01:14.758Z,96721.75
2023-02-24T19:03:41.470Z,96728.03
2023-02-24T19:06:08.337Z,96717.63
2023-02-24T19:08:34.859Z,96716.75
2023-02-24T19:11:10.274Z,96726.44
2023-02-24T19:13:36.747Z,96719.94
2023-02-24T19:16:03.486Z,96723.22
2023-02-24T19:18:30.017Z,96726.44
2023-02-24T19:20:56.563Z,96720.28
2023-02-24T19:23:23.082Z,96716.84
2023-02-24T19:25:49.712Z,96715.81
2023-02-24T19:28:16.585Z,96712.63
2023-02-24T19:30:43.136Z,96719.34
2023-02-24T19:33:09.765Z,96716.16
2023-02-24T19:35:39.878Z,96716.38
2023-02-24T19:38:06.341Z,96713.88
2023-02-24T19:40:32.835Z,96717.84
2023-02-24T19:42:59.355Z,96706.78
2023-02-24T19:45:25.894Z,96709.41
2023-02-24T19:47:52.462Z,96699.13
2023-02-24T19:50:19.011Z,96707.00
2023-02-24T19:52:45.482Z,96707.22
2023-02-24T19:55:12.011Z,96709.72
2023-02-24T19:57:38.794Z,96715.69
2023-02-24T20:00:06.128Z,96721.38
2023-02-24T20:02:32.712Z,96716.13
2023-02-24T20:04:59.428Z,96717.75
2023-02-24T20:07:26.195Z,96714.19
2023-02-24T20:09:54.626Z,96712.13
2023-02-24T20:12:21.089Z,96725.50
2023-02-24T20:14:47.555Z,96725.16
2023-02-24T20:17:14.036Z,96726.28
2023-02-24T20:19:40.498Z,96717.03
2023-02-24T20:22:06.985Z,96723.56
2023-02-24T20:24:35.060Z,96723.31
2023-02-24T20:27:04.604Z,96726.97
2023-02-24T20:29:32.898Z,96738.94
2023-02-24T20:31:59.913Z,96727.19
2023-02-24T20:34:26.785Z,96726.38
2023-02-24T20:36:53.348Z,96717.63
2023-02-24T20:39:21.856Z,96717.03
2023-02-24T20:41:49.371Z,96718.75
2023-02-24T20:44:15.842Z,96723.31
2023-02-24T20:46:42.322Z,96730.19
2023-02-24T20:49:10.512Z,96720.25
2023-02-24T20:51:37.364Z,96717.75
2023-02-24T20:54:06.538Z,96715.34
2023-02-24T20:56:35.636Z,96722.50
2023-02-24T20:59:12.775Z,96714.53
2023-02-24T21:01:39.584Z,96711.91
2023-02-24T21:04:06.357Z,96716.00
2023-02-24T21:06:32.980Z,96720.47
2023-02-24T21:08:59.452Z,96714.41
2023-02-24T21:11:26.045Z,96712.47
2023-02-24T21:13:52.673Z,96722.16
2023-02-24T21:16:19.615Z,96717.34
2023-02-24T21:18:46.707Z,96710.75
2023-02-24T21:21:15.009Z,96708.13
2023-02-24T21:23:41.767Z,96715.00
2023-02-24T21:26:08.271Z,96699.44
2023-02-24T21:28:34.869Z,96694.78
2023-02-24T21:31:01.872Z,96688.97
2023-02-24T21:33:28.737Z,96690.91
2023-02-24T21:36:06.603Z,96688.38
2023-02-24T21:38:36.616Z,96695.91
2023-02-24T21:41:04.426Z,96691.56
2023-02-24T21:43:31.045Z,96696.03
2023-02-24T21:46:00.683Z,96687.81
2023-02-24T21:48:27.182Z,96688.50
2023-02-24T21:51:00.411Z,96688.50
2023-02-24T21:53:30.032Z,96697.78
2023-02-24T21:56:11.056Z,96687.38
2023-02-24T21:58:38.868Z,96691.25
2023-02-24T22:01:13.228Z,96694.78
2023-02-24T22:03:40.091Z,96692.72
2023-02-24T22:06:06.935Z,96699.19
2023-02-24T22:08:33.477Z,96701.38
2023-02-24T22:11:00.264Z,96696.69
2023-02-24T22:13:27.101Z,96701.25
2023-02-24T22:15:53.708Z,96703.19
2023-02-24T22:18:21.176Z,96703.53
2023-02-24T22:20:47.802Z,96698.84
2023-02-24T22:23:14.274Z,96700.91
2023-02-24T22:25:40.781Z,96706.84
2023-02-24T22:28:07.293Z,96700.44
2023-02-24T22:30:34.046Z,96702.19
2023-02-24T22:33:00.528Z,96705.00
2023-02-24T22:35:27.021Z,96704.06
2023-02-24T22:37:53.667Z,96697.31
2023-02-24T22:40:20.894Z,96702.22
2023-02-24T22:42:47.449Z,96705.88
2023-02-24T22:45:13.933Z,96722.22
2023-02-24T22:47:40.439Z,96720.16
2023-02-24T22:50:07.494Z,96732.34
2023-02-24T22:52:33.983Z,96726.09
2023-02-24T22:55:00.585Z,96744.13
2023-02-24T22:57:29.121Z,96729.16
2023-02-24T22:59:56.004Z,96730.63
2023-02-24T23:02:22.500Z,96729.97
2023-02-24T23:04:48.985Z,96748.66
2023-02-24T23:07:15.474Z,96747.84
2023-02-24T23:09:52.285Z,96746.03
2023-02-24T23:12:20.521Z,96745.34
2023-02-24T23:14:46.998Z,96753.66
2023-02-24T23:17:13.523Z,96749.31
2023-02-24T23:19:39.978Z,96754.88
2023-02-24T23:22:07.901Z,96766.97
2023-02-24T23:24:34.459Z,96771.09
2023-02-24T23:27:00.959Z,96770.66
2023-02-24T23:29:27.531Z,96770.50
2023-02-24T23:31:54.303Z,96769.56
2023-02-24T23:34:21.007Z,96784.38
2023-02-24T23:36:47.690Z,96782.88
2023-02-24T23:39:16.349Z,96779.91
2023-02-24T23:41:42.874Z,96789.34
2023-02-24T23:44:09.396Z,96793.00
2023-02-24T23:46:36.296Z,96798.72
2023-02-24T23:49:03.032Z,96785.28
2023-02-24T23:51:45.670Z,96791.75
2023-02-24T23:54:13.889Z,96797.34
2023-02-24T23:56:41.095Z,96800.56
2023-02-24T23:59:07.579Z,96789.94
